createdAt,value
2018-01-12T00:01:56.264Z,77.50
2018-01-12T00:04:24.258Z,76.60
2018-01-12T00:06:51.696Z,76.20
2018-01-12T00:09:19.140Z,76.30
2018-01-12T00:11:47.066Z,75.90
2018-01-12T00:14:16.082Z,76.00
2018-01-12T00:16:44.087Z,75.80
2018-01-12T00:19:11.555Z,75.70
2018-01-12T00:21:39.062Z,75.90
2018-01-12T00:24:06.545Z,75.70
2018-01-12T00:26:34.020Z,75.50
2018-01-12T00:29:01.933Z,75.80
2018-01-12T00:31:29.819Z,75.40
2018-01-12T00:33:57.265Z,75.60
2018-01-12T00:36:25.194Z,75.40
2018-01-12T00:38:52.666Z,75.20
2018-01-12T00:41:21.350Z,75.30
2018-01-12T00:43:49.660Z,75.10
2018-01-12T00:46:17.150Z,74.50
2018-01-12T00:48:45.183Z,74.50
2018-01-12T00:51:12.656Z,74.50
2018-01-12T00:53:40.134Z,74.30
2018-01-12T00:56:07.592Z,74.60
2018-01-12T00:58:35.474Z,74.70
2018-01-12T01:01:02.972Z,74.80
2018-01-12T01:03:30.639Z,74.90
2018-01-12T01:05:58.607Z,74.90
2018-01-12T01:08:26.095Z,74.80
2018-01-12T01:10:53.636Z,74.80
2018-01-12T01:13:21.077Z,74.80
2018-01-12T01:15:49.302Z,75.40
2018-01-12T01:18:17.281Z,74.80
2018-01-12T01:20:45.485Z,75.50
2018-01-12T01:23:12.947Z,74.80
2018-01-12T01:25:40.541Z,74.80
2018-01-12T01:28:08.500Z,74.90
2018-01-12T01:30:35.949Z,75.00
2018-01-12T01:33:03.393Z,75.20
2018-01-12T01:35:30.908Z,75.30
2018-01-12T01:37:59.121Z,75.80
2018-01-12T01:40:26.818Z,75.10
2018-01-12T01:42:54.684Z,75.20
2018-01-12T01:45:22.167Z,75.10
2018-01-12T01:47:50.482Z,75.70
2018-01-12T01:50:17.932Z,75.10
2018-01-12T01:52:45.380Z,75.20
2018-01-12T01:55:12.852Z,75.10
2018-01-12T01:57:40.757Z,75.00
2018-01-12T02:00:08.573Z,75.10
2018-01-12T02:02:36.048Z,75.10
2018-01-12T02:05:03.905Z,75.10
2018-01-12T02:07:31.361Z,75.10
2018-01-12T02:09:59.745Z,75.30
2018-01-12T02:12:27.219Z,75.30
2018-01-12T02:14:54.753Z,75.40
2018-01-12T02:17:22.692Z,75.30
2018-01-12T02:19:50.910Z,75.60
2018-01-12T02:22:18.386Z,75.00
2018-01-12T02:24:46.212Z,74.80
2018-01-12T02:27:14.320Z,74.90
2018-01-12T02:29:41.753Z,74.90
2018-01-12T02:32:09.234Z,74.80
2018-01-12T02:34:36.715Z,74.80
2018-01-12T02:37:04.150Z,74.90
2018-01-12T02:39:32.461Z,75.00
2018-01-12T02:42:00.960Z,75.20
2018-01-12T02:44:28.480Z,74.70
2018-01-12T02:46:55.925Z,74.70
2018-01-12T02:49:23.586Z,74.70
2018-01-12T02:51:51.448Z,74.60
2018-01-12T02:54:19.318Z,74.60
2018-01-12T02:56:47.081Z,74.60
2018-01-12T02:59:15.430Z,74.90
2018-01-12T03:01:43.226Z,74.50
2018-01-12T03:04:10.702Z,74.50
2018-01-12T03:06:39.374Z,75.00
2018-01-12T03:09:06.825Z,74.50
2018-01-12T03:11:34.710Z,74.40
2018-01-12T03:14:03.848Z,74.90
2018-01-12T03:16:31.883Z,74.40
2018-01-12T03:19:00.642Z,75.00
2018-01-12T03:21:28.721Z,74.50
2018-01-12T03:23:56.188Z,74.40
2018-01-12T03:26:23.627Z,74.40
2018-01-12T03:28:51.606Z,74.50
2018-01-12T03:31:19.057Z,74.60
2018-01-12T03:33:47.317Z,75.00
2018-01-12T03:36:14.751Z,74.50
2018-01-12T03:38:42.232Z,74.60
2018-01-12T03:41:09.672Z,74.70
2018-01-12T03:43:37.140Z,74.70
2018-01-12T03:46:04.589Z,74.60
2018-01-12T03:48:32.682Z,74.70
2018-01-12T03:51:00.167Z,74.80
2018-01-12T03:53:28.796Z,75.40
2018-01-12T03:55:57.808Z,74.90
2018-01-12T03:58:25.639Z,74.90
2018-01-12T04:00:53.257Z,75.00
2018-01-12T04:03:20.772Z,75.00
2018-01-12T04:05:48.640Z,75.10
2018-01-12T04:08:16.515Z,75.10
2018-01-12T04:10:44.026Z,75.10
2018-01-12T04:13:12.244Z,75.50
2018-01-12T04:15:39.704Z,75.00
2018-01-12T04:18:07.588Z,74.90
2018-01-12T04:20:35.041Z,74.80
2018-01-12T04:23:02.522Z,74.70
2018-01-12T04:25:30.745Z,75.40
2018-01-12T04:27:58.453Z,74.80
2018-01-12T04:30:26.665Z,75.70
2018-01-12T04:32:54.145Z,74.80
2018-01-12T04:35:21.592Z,74.90
2018-01-12T04:37:49.156Z,75.00
2018-01-12T04:40:16.624Z,75.00
2018-01-12T04:42:44.409Z,75.20
2018-01-12T04:45:11.928Z,75.10
2018-01-12T04:47:39.370Z,75.00
2018-01-12T04:50:06.836Z,75.00
2018-01-12T04:52:34.436Z,75.00
2018-01-12T04:55:01.881Z,75.20
2018-01-12T04:57:29.705Z,75.30
2018-01-12T04:59:57.181Z,75.30
2018-01-12T05:02:24.628Z,75.40
2018-01-12T05:04:52.099Z,75.50
2018-01-12T05:07:19.905Z,75.70
2018-01-12T05:09:47.357Z,75.70
2018-01-12T05:12:14.879Z,75.60
2018-01-12T05:14:42.608Z,75.50
2018-01-12T05:17:10.517Z,75.30
2018-01-12T05:19:38.087Z,75.40
2018-01-12T05:22:05.607Z,75.20
2018-01-12T05:24:33.063Z,75.20
2018-01-12T05:27:01.136Z,75.20
2018-01-12T05:29:29.038Z,75.20
2018-01-12T05:31:56.562Z,75.20
2018-01-12T05:34:24.177Z,75.20
2018-01-12T05:36:52.219Z,75.30
2018-01-12T05:39:19.656Z,75.20
2018-01-12T05:41:47.120Z,75.20
2018-01-12T05:44:15.036Z,75.30
2018-01-12T05:46:43.293Z,75.70
2018-01-12T05:49:10.747Z,75.20
2018-01-12T05:51:38.708Z,74.90
2018-01-12T05:54:06.149Z,74.80
2018-01-12T05:56:33.624Z,74.60
2018-01-12T05:59:02.699Z,75.10
2018-01-12T06:01:42.175Z,74.70
2018-01-12T06:04:22.370Z,75.40
2018-01-12T06:06:50.275Z,74.70
2018-01-12T06:09:17.748Z,74.70
2018-01-12T06:11:45.209Z,74.90
2018-01-12T06:14:13.419Z,75.30
2018-01-12T06:16:40.892Z,74.80
2018-01-12T06:19:08.359Z,74.90
2018-01-12T06:21:35.806Z,74.90
2018-01-12T06:24:03.394Z,75.00
2018-01-12T06:26:31.452Z,75.30
2018-01-12T06:28:59.319Z,75.20
2018-01-12T06:31:27.258Z,75.30
2018-01-12T06:33:54.816Z,75.40
2018-01-12T06:36:22.276Z,75.50
2018-01-12T06:41:43.545Z,75.70
2018-01-12T06:44:11.024Z,75.60
2018-01-12T06:46:39.336Z,76.30
2018-01-12T06:49:06.804Z,75.80
2018-01-12T06:51:34.267Z,75.70
2018-01-12T06:54:01.783Z,75.70
2018-01-12T06:56:29.269Z,75.60
2018-01-12T06:58:56.759Z,75.50
2018-01-12T07:01:24.408Z,75.50
2018-01-12T07:03:51.863Z,75.40
2018-01-12T07:06:19.848Z,75.30
2018-01-12T07:08:47.466Z,75.40
2018-01-12T07:11:14.955Z,75.50
2018-01-12T07:13:42.471Z,75.30
2018-01-12T07:16:10.493Z,75.30
2018-01-12T07:18:38.364Z,75.30
2018-01-12T07:21:17.652Z,75.20
2018-01-12T07:23:46.300Z,75.10
2018-01-12T07:26:14.445Z,75.30
2018-01-12T07:28:42.303Z,75.30
2018-01-12T07:31:10.273Z,75.10
2018-01-12T07:33:37.737Z,75.30
2018-01-12T07:36:05.188Z,75.30
2018-01-12T07:38:32.643Z,75.20
2018-01-12T07:41:00.141Z,75.20
2018-01-12T07:43:28.373Z,75.60
2018-01-12T07:45:55.808Z,75.20
2018-01-12T07:48:23.329Z,75.30
2018-01-12T07:50:51.880Z,75.90
2018-01-12T07:53:22.178Z,75.40
2018-01-12T07:55:49.701Z,75.40
2018-01-12T07:58:17.905Z,76.00
2018-01-12T08:00:51.223Z,75.50
2018-01-12T08:03:18.651Z,75.60
2018-01-12T08:05:46.456Z,75.70
2018-01-12T08:08:13.917Z,75.70
2018-01-12T08:10:43.377Z,75.60
2018-01-12T08:13:10.873Z,75.60
2018-01-12T08:15:38.380Z,75.60
2018-01-12T08:18:05.901Z,75.50
2018-01-12T08:20:34.735Z,76.20
2018-01-12T08:23:03.584Z,75.80
2018-01-12T08:25:32.010Z,76.90
2018-01-12T08:28:00.938Z,75.80
2018-01-12T08:30:28.432Z,76.10
2018-01-12T08:32:55.913Z,75.50
2018-01-12T08:35:23.361Z,75.30
2018-01-12T08:37:51.289Z,75.20
2018-01-12T08:40:19.587Z,75.70
2018-01-12T08:42:47.166Z,75.30
2018-01-12T08:45:17.586Z,75.10
2018-01-12T08:47:45.285Z,75.20
2018-01-12T08:50:12.734Z,75.20
2018-01-12T08:52:40.811Z,75.40
2018-01-12T08:55:08.472Z,75.30
2018-01-12T08:57:36.713Z,75.20
2018-01-12T09:00:04.147Z,75.10
2018-01-12T09:02:31.640Z,75.30
2018-01-12T09:04:59.216Z,75.30
2018-01-12T09:07:26.632Z,75.30
2018-01-12T09:09:54.155Z,75.20
2018-01-12T09:12:21.627Z,75.30
2018-01-12T09:14:53.497Z,76.00
2018-01-12T09:17:33.447Z,75.40
2018-01-12T09:20:14.135Z,76.00
2018-01-12T09:22:46.356Z,75.50
2018-01-12T09:25:25.429Z,76.00
2018-01-12T09:27:53.526Z,75.60
2018-01-12T09:30:20.984Z,75.60
2018-01-12T09:32:49.339Z,75.70
2018-01-12T09:35:16.827Z,75.60
2018-01-12T09:37:44.276Z,75.60
2018-01-12T09:40:21.565Z,75.80
2018-01-12T09:42:49.229Z,75.60
2018-01-12T09:45:16.681Z,75.60
2018-01-12T09:47:56.024Z,75.70
2018-01-12T09:50:24.213Z,75.70
2018-01-12T09:52:51.685Z,75.80
2018-01-12T09:55:20.096Z,76.40
2018-01-12T09:57:48.064Z,76.00
2018-01-12T10:00:27.502Z,76.00
2018-01-12T10:02:55.047Z,76.10
2018-01-12T10:05:22.509Z,76.10
2018-01-12T10:08:06.673Z,76.20
2018-01-12T10:10:34.465Z,76.10
2018-01-12T10:13:01.986Z,76.00
2018-01-12T10:15:29.546Z,76.10
2018-01-12T10:17:57.345Z,76.00
2018-01-12T10:20:39.652Z,76.10
2018-01-12T10:23:07.885Z,76.50
2018-01-12T10:25:35.890Z,76.10
2018-01-12T10:28:03.973Z,76.70
2018-01-12T10:31:03.883Z,76.10
2018-01-12T10:33:43.081Z,76.00
2018-01-12T10:36:31.228Z,76.00
2018-01-12T10:38:58.717Z,76.00
2018-01-12T10:41:38.126Z,75.90
2018-01-12T10:44:05.820Z,76.00
2018-01-12T10:46:51.289Z,76.00
2018-01-12T10:49:25.762Z,76.00
2018-01-12T10:52:10.062Z,76.00
2018-01-12T10:54:37.538Z,75.80
2018-01-12T10:57:04.975Z,76.50
2018-01-12T10:59:32.472Z,76.00
2018-01-12T11:01:59.916Z,75.90
2018-01-12T11:04:28.577Z,76.70
2018-01-12T11:06:56.019Z,76.20
2018-01-12T11:09:25.436Z,76.20
2018-01-12T11:11:52.868Z,76.00
2018-01-12T11:14:20.965Z,76.10
2018-01-12T11:16:48.399Z,76.30
2018-01-12T11:19:15.898Z,76.30
2018-01-12T11:21:43.335Z,76.20
2018-01-12T11:24:10.800Z,76.50
2018-01-12T11:26:38.255Z,76.20
2018-01-12T11:29:06.110Z,76.40
2018-01-12T11:31:33.572Z,76.50
2018-01-12T11:34:01.043Z,76.50
2018-01-12T11:36:28.645Z,76.40
2018-01-12T11:38:56.614Z,76.30
2018-01-12T11:41:24.174Z,76.30
2018-01-12T11:43:51.661Z,76.20
2018-01-12T11:46:19.188Z,76.20
2018-01-12T11:48:48.010Z,77.00
2018-01-12T11:51:15.980Z,76.60
2018-01-12T11:53:43.516Z,76.80
2018-01-12T11:56:11.154Z,76.70
2018-01-12T11:58:39.360Z,76.80
2018-01-12T12:01:06.797Z,76.60
2018-01-12T12:03:35.841Z,76.50
2018-01-12T12:06:03.900Z,76.60
2018-01-12T12:08:31.388Z,76.60
2018-01-12T12:10:59.625Z,77.20
2018-01-12T12:13:29.086Z,76.80
2018-01-12T12:15:56.561Z,76.70
2018-01-12T12:18:24.211Z,76.70
2018-01-12T12:20:51.692Z,76.80
2018-01-12T12:23:19.160Z,76.80
2018-01-12T12:25:47.169Z,77.00
2018-01-12T12:28:15.820Z,77.20
2018-01-12T12:30:43.261Z,76.80
2018-01-12T12:33:10.797Z,76.80
2018-01-12T12:35:38.232Z,76.90
2018-01-12T12:38:05.770Z,76.80
2018-01-12T12:40:34.021Z,77.00
2018-01-12T12:43:01.488Z,76.60
2018-01-12T12:45:29.098Z,76.40
2018-01-12T12:47:57.633Z,76.30
2018-01-12T12:50:26.259Z,76.80
2018-01-12T12:52:54.233Z,77.00
2018-01-12T12:55:21.704Z,76.50
2018-01-12T12:57:49.163Z,76.60
2018-01-12T13:00:16.640Z,76.40
2018-01-12T13:02:44.083Z,76.30
2018-01-12T13:05:11.679Z,76.20
2018-01-12T13:07:39.825Z,76.10
2018-01-12T13:10:08.341Z,76.00
2018-01-12T13:12:36.564Z,76.50
2018-01-12T13:15:04.118Z,76.00
2018-01-12T13:17:31.727Z,76.40
2018-01-12T13:20:00.304Z,77.10
2018-01-12T13:22:27.753Z,76.70
2018-01-12T13:24:55.255Z,76.70
2018-01-12T13:27:24.111Z,77.20
2018-01-12T13:29:51.557Z,76.80
2018-01-12T13:32:19.899Z,77.20
2018-01-12T13:34:48.004Z,76.80
2018-01-12T13:37:16.232Z,76.60
2018-01-12T13:39:43.693Z,76.60
2018-01-12T13:42:11.246Z,76.70
2018-01-12T13:44:39.015Z,76.70
2018-01-12T13:47:06.719Z,76.80
2018-01-12T13:49:35.776Z,76.70
2018-01-12T13:52:03.231Z,76.60
2018-01-12T13:54:30.785Z,76.50
2018-01-12T13:56:58.224Z,76.60
2018-01-12T13:59:25.704Z,76.40
2018-01-12T14:01:53.361Z,76.40
2018-01-12T14:04:20.916Z,76.40
2018-01-12T14:06:48.886Z,77.10
2018-01-12T14:09:17.540Z,77.00
2018-01-12T14:11:45.749Z,77.10
2018-01-12T14:14:13.236Z,76.70
2018-01-12T14:16:41.127Z,76.70
2018-01-12T14:19:09.377Z,77.20
2018-01-12T14:21:37.786Z,76.80
2018-01-12T14:24:06.095Z,77.30
2018-01-12T14:26:33.552Z,76.90
2018-01-12T14:29:01.567Z,77.00
2018-01-12T14:31:29.043Z,77.00
2018-01-12T14:33:57.267Z,77.30
2018-01-12T14:36:25.772Z,76.90
2018-01-12T14:38:53.226Z,76.80
2018-01-12T14:41:21.599Z,76.80
2018-01-12T14:43:49.377Z,76.90
2018-01-12T14:46:16.786Z,76.80
2018-01-12T14:48:44.651Z,76.80
2018-01-12T14:51:12.510Z,76.90
2018-01-12T14:53:40.376Z,76.90
2018-01-12T14:56:07.963Z,76.70
2018-01-12T14:58:35.510Z,76.60
2018-01-12T15:01:02.955Z,76.60
2018-01-12T15:03:31.202Z,77.10
2018-01-12T15:05:59.923Z,77.30
2018-01-12T15:08:27.729Z,76.90
2018-01-12T15:10:55.187Z,77.00
2018-01-12T15:13:22.700Z,77.10
2018-01-12T15:15:50.235Z,77.10
2018-01-12T15:18:18.508Z,77.70
2018-01-12T15:20:47.058Z,77.70
2018-01-12T15:23:14.526Z,77.30
2018-01-12T15:25:42.138Z,77.20
2018-01-12T15:28:09.998Z,77.60
2018-01-12T15:30:37.455Z,77.30
2018-01-12T15:33:05.052Z,77.20
2018-01-12T15:35:32.826Z,77.30
2018-01-12T15:38:00.313Z,78.00
2018-01-12T15:40:27.894Z,77.90
2018-01-12T15:42:55.320Z,77.20
2018-01-12T15:45:23.568Z,77.70
2018-01-12T15:47:51.017Z,77.30
2018-01-12T15:50:19.519Z,77.30
2018-01-12T15:52:47.742Z,77.60
2018-01-12T15:55:15.293Z,77.10
2018-01-12T15:57:42.758Z,77.10
2018-01-12T16:00:10.516Z,77.20
2018-01-12T16:02:38.305Z,77.20
2018-01-12T16:05:05.766Z,77.30
2018-01-12T16:07:35.074Z,77.20
2018-01-12T16:10:02.550Z,77.20
2018-01-12T16:12:30.192Z,77.20
2018-01-12T16:14:57.628Z,77.00
2018-01-12T16:17:26.233Z,77.10
2018-01-12T16:19:53.832Z,77.10
2018-01-12T16:22:21.822Z,77.10
2018-01-12T16:24:49.274Z,77.00
2018-01-12T16:27:17.175Z,77.00
2018-01-12T16:29:45.185Z,77.00
2018-01-12T16:32:13.444Z,77.50
2018-01-12T16:34:40.888Z,77.00
2018-01-12T16:37:08.340Z,77.40
2018-01-12T16:39:35.909Z,77.00
2018-01-12T16:42:03.363Z,77.10
2018-01-12T16:44:31.639Z,77.40
2018-01-12T16:46:59.084Z,77.00
2018-01-12T16:49:26.943Z,77.00
2018-01-12T16:51:54.608Z,76.90
2018-01-12T16:54:22.131Z,77.00
2018-01-12T16:56:49.688Z,76.90
2018-01-12T16:59:17.158Z,76.90
2018-01-12T17:01:45.064Z,76.90
2018-01-12T17:04:12.560Z,77.00
2018-01-12T17:06:40.805Z,77.50
2018-01-12T17:09:09.281Z,77.50
2018-01-12T17:11:36.865Z,77.10
2018-01-12T17:14:04.308Z,77.00
2018-01-12T17:16:32.646Z,77.60
2018-01-12T17:19:00.085Z,77.10
2018-01-12T17:21:27.542Z,77.00
2018-01-12T17:23:55.500Z,77.00
2018-01-12T17:26:22.955Z,77.00
2018-01-12T17:28:50.810Z,76.90
2018-01-12T17:31:18.254Z,76.80
2018-01-12T17:33:46.556Z,77.30
2018-01-12T17:36:14.018Z,76.90
2018-01-12T17:38:41.491Z,77.00
2018-01-12T17:41:09.160Z,77.00
2018-01-12T17:43:36.699Z,77.00
2018-01-12T17:46:04.485Z,77.00
2018-01-12T17:48:31.972Z,77.00
2018-01-12T17:51:00.641Z,77.60
2018-01-12T17:53:28.392Z,77.20
2018-01-12T17:55:55.855Z,77.20
2018-01-12T17:58:23.356Z,77.10
2018-01-12T18:00:50.897Z,77.20
2018-01-12T18:03:19.129Z,76.90
2018-01-12T18:05:46.638Z,76.90
2018-01-12T18:08:14.374Z,76.40
2018-01-12T18:10:41.817Z,76.40
2018-01-12T18:13:09.294Z,76.40
2018-01-12T18:15:37.519Z,77.40
2018-01-12T18:18:05.421Z,76.70
2018-01-12T18:20:32.902Z,76.70
2018-01-12T18:23:01.145Z,77.10
2018-01-12T18:25:28.712Z,76.70
2018-01-12T18:27:57.811Z,76.50
2018-01-12T18:30:25.260Z,76.70
2018-01-12T18:32:53.804Z,76.50
2018-01-12T18:35:21.280Z,76.50
2018-01-12T18:37:48.758Z,76.60
2018-01-12T18:40:16.269Z,76.50
2018-01-12T18:42:43.747Z,76.60
2018-01-12T18:45:11.302Z,76.60
2018-01-12T18:47:38.778Z,76.60
2018-01-12T18:50:06.286Z,76.60
2018-01-12T18:52:33.805Z,76.60
2018-01-12T18:55:01.303Z,76.70
2018-01-12T18:57:29.537Z,77.20
2018-01-12T18:59:58.005Z,76.70
2018-01-12T19:02:25.866Z,76.80
2018-01-12T19:04:53.316Z,77.00
2018-01-12T19:07:21.452Z,77.00
2018-01-12T19:09:48.931Z,77.10
2018-01-12T19:12:17.065Z,77.00
2018-01-12T19:14:45.318Z,77.10
2018-01-12T19:17:12.841Z,76.80
2018-01-12T19:19:40.874Z,76.70
2018-01-12T19:22:09.081Z,77.10
2018-01-12T19:24:36.672Z,76.70
2018-01-12T19:27:04.556Z,76.70
2018-01-12T19:29:32.324Z,76.70
2018-01-12T19:31:59.821Z,76.70
2018-01-12T19:34:27.277Z,76.80
2018-01-12T19:36:54.860Z,76.90
2018-01-12T19:39:22.501Z,77.00
2018-01-12T19:41:49.966Z,77.00
2018-01-12T19:44:17.515Z,77.10
2018-01-12T19:46:44.975Z,77.10
2018-01-12T19:49:12.513Z,77.20
2018-01-12T19:51:40.753Z,77.60
2018-01-12T19:54:08.920Z,77.20
2018-01-12T19:56:36.358Z,77.20
2018-01-12T19:59:03.821Z,77.80
2018-01-12T20:01:31.347Z,77.30
2018-01-12T20:03:58.956Z,76.90
2018-01-12T20:06:26.901Z,76.70
2018-01-12T20:08:55.359Z,76.50
2018-01-12T20:11:23.231Z,77.00
2018-01-12T20:13:50.761Z,76.40
2018-01-12T20:16:18.370Z,76.30
2018-01-12T20:18:45.805Z,76.20
2018-01-12T20:21:13.766Z,76.10
2018-01-12T20:23:41.256Z,76.30
2018-01-12T20:26:08.748Z,76.30
2018-01-12T20:28:37.669Z,76.70
2018-01-12T20:31:05.538Z,76.30
2018-01-12T20:33:33.504Z,76.40
2018-01-12T20:36:01.375Z,76.40
2018-01-12T20:38:29.247Z,76.50
2018-01-12T20:40:56.744Z,76.50
2018-01-12T20:43:24.254Z,76.60
2018-01-12T20:45:51.705Z,76.70
2018-01-12T20:48:19.429Z,76.70
2018-01-12T20:50:48.038Z,77.60
2018-01-12T20:53:15.995Z,76.70
2018-01-12T20:55:44.196Z,77.10
2018-01-12T20:58:11.677Z,76.70
2018-01-12T21:00:39.454Z,76.80
2018-01-12T21:03:06.897Z,76.90
2018-01-12T21:05:34.376Z,76.70
2018-01-12T21:08:02.506Z,76.80
2018-01-12T21:10:29.959Z,76.90
2018-01-12T21:12:57.392Z,77.00
2018-01-12T21:15:25.850Z,77.60
2018-01-12T21:17:54.085Z,77.80
2018-01-12T21:20:21.908Z,77.40
2018-01-12T21:22:50.158Z,77.60
2018-01-12T21:25:17.703Z,77.20
2018-01-12T21:27:45.697Z,77.80
2018-01-12T21:30:13.948Z,77.10
2018-01-12T21:32:41.444Z,76.60
2018-01-12T21:35:09.913Z,77.00
2018-01-12T21:37:38.144Z,76.60
2018-01-12T21:40:05.626Z,77.10
2018-01-12T21:42:33.098Z,76.80
2018-01-12T21:45:00.550Z,76.90
2018-01-12T21:47:28.049Z,77.00
2018-01-12T21:49:56.026Z,77.00
2018-01-12T21:52:23.585Z,77.00
2018-01-12T21:54:51.449Z,77.00
2018-01-12T21:57:18.903Z,77.00
2018-01-12T21:59:47.136Z,77.50
2018-01-12T22:02:15.395Z,77.40
2018-01-12T22:04:42.908Z,77.00
2018-01-12T22:07:10.365Z,77.10
2018-01-12T22:09:38.542Z,77.10
2018-01-12T22:12:06.053Z,77.30
2018-01-12T22:14:33.495Z,77.30
2018-01-12T22:17:01.010Z,77.30
2018-01-12T22:19:28.530Z,77.40
2018-01-12T22:21:55.981Z,77.30
2018-01-12T22:24:24.302Z,77.90
2018-01-12T22:26:52.365Z,77.40
2018-01-12T22:29:20.139Z,77.40
2018-01-12T22:31:47.696Z,77.40
2018-01-12T22:34:15.162Z,77.40
2018-01-12T22:36:42.989Z,77.40
2018-01-12T22:39:11.196Z,77.80
2018-01-12T22:41:39.005Z,77.40
2018-01-12T22:44:07.192Z,77.30
2018-01-12T22:46:35.433Z,77.70
2018-01-12T22:49:03.421Z,77.30
2018-01-12T22:51:30.870Z,77.20
2018-01-12T22:53:58.338Z,77.00
2018-01-12T22:56:25.830Z,77.20
2018-01-12T22:58:53.305Z,77.10
2018-01-12T23:01:20.763Z,77.20
2018-01-12T23:03:48.448Z,77.20
2018-01-12T23:06:16.120Z,77.10
2018-01-12T23:08:44.384Z,77.10
2018-01-12T23:11:12.051Z,77.20
2018-01-12T23:13:39.518Z,77.20
2018-01-12T23:16:06.993Z,77.20
2018-01-12T23:18:35.196Z,77.50
2018-01-12T23:21:03.650Z,77.10
2018-01-12T23:23:31.856Z,77.80
2018-01-12T23:25:59.419Z,77.30
2018-01-12T23:28:27.322Z,77.20
2018-01-12T23:30:55.304Z,77.20
2018-01-12T23:33:23.629Z,78.30
2018-01-12T23:35:51.978Z,77.20
2018-01-12T23:38:20.190Z,77.80
2018-01-12T23:40:47.664Z,77.40
2018-01-12T23:43:15.845Z,77.50
2018-01-12T23:45:43.331Z,77.60
2018-01-12T23:48:11.580Z,78.00
2018-01-12T23:50:39.542Z,78.20
2018-01-12T23:53:07.073Z,77.70
2018-01-12T23:55:34.627Z,77.70
2018-01-12T23:58:02.070Z,77.70
